Time;durP1;ratioP1;P1;durP2;ratioP2;P2;SDS_P1;SDS_P2;PMS_P1;PMS_P2;Temp;Humidity;BMP_temperature;BMP_pressure;BME280_temperature;BME280_humidity;BME280_pressure;Samples;Min_cycle;Max_cycle;Signal;HPM_P1;HPM_P2
2023/09/20 00:00:12;;;;;;;2.60;2.40;;;16.60;99.90;;;;;;5039276;28;20439;-80
2023/09/20 00:02:41;;;;;;;3.77;2.60;;;16.60;99.90;;;;;;5062702;28;20476;-79
2023/09/20 00:05:14;;;;;;;2.20;2.10;;;16.60;99.90;;;;;;5062423;28;20469;-79
2023/09/20 00:07:43;;;;;;;3.00;2.10;;;16.60;99.90;;;;;;5059198;28;20969;-79
2023/09/20 00:10:13;;;;;;;3.17;1.90;;;16.60;99.90;;;;;;5059551;28;20795;-80
2023/09/20 00:12:40;;;;;;;2.30;2.20;;;16.60;99.90;;;;;;5059029;28;20494;-80
2023/09/20 00:15:08;;;;;;;1.97;1.87;;;16.50;99.90;;;;;;5058818;28;20482;-79
2023/09/20 00:17:36;;;;;;;2.70;2.50;;;16.50;99.90;;;;;;5060182;28;20452;-79
2023/09/20 00:20:11;;;;;;;2.40;2.20;;;16.50;99.90;;;;;;5062815;28;20461;-79
2023/09/20 00:22:40;;;;;;;2.97;2.27;;;16.60;99.90;;;;;;5062089;28;20449;-80
2023/09/20 00:25:09;;;;;;;1.90;1.80;;;16.60;99.90;;;;;;5060398;28;20515;-80
2023/09/20 00:27:35;;;;;;;2.13;1.93;;;16.50;99.90;;;;;;5058783;28;20453;-81
2023/09/20 00:30:02;;;;;;;2.83;2.23;;;16.50;99.90;;;;;;5057565;28;20445;-80
2023/09/20 00:32:30;;;;;;;1.73;1.60;;;16.50;99.90;;;;;;5056471;28;20503;-80
2023/09/20 00:34:57;;;;;;;2.13;2.03;;;16.50;99.90;;;;;;5056067;28;20564;-80
2023/09/20 00:37:23;;;;;;;2.00;1.90;;;16.50;99.90;;;;;;5056151;28;20459;-79
2023/09/20 00:39:50;;;;;;;2.33;2.10;;;16.50;99.90;;;;;;5057447;28;20484;-79
2023/09/20 00:42:18;;;;;;;2.40;2.10;;;16.50;99.90;;;;;;5056490;28;20580;-79
2023/09/20 00:44:45;;;;;;;2.30;2.10;;;16.50;99.90;;;;;;5057228;28;20465;-79
2023/09/20 00:47:14;;;;;;;2.67;2.47;;;16.40;99.90;;;;;;5057289;28;20442;-79
2023/09/20 00:49:43;;;;;;;3.60;2.57;;;16.40;99.90;;;;;;5056792;28;20449;-78
2023/09/20 00:52:12;;;;;;;2.10;2.00;;;16.40;99.90;;;;;;5055035;28;20461;-79
2023/09/20 00:54:40;;;;;;;2.60;2.40;;;16.40;99.90;;;;;;5054357;28;20505;-79
2023/09/20 00:57:07;;;;;;;1.70;1.60;;;16.40;99.90;;;;;;5036594;28;20951;-79
2023/09/20 00:59:38;;;;;;;2.93;1.80;;;16.40;99.90;;;;;;5037204;28;20448;-81
2023/09/20 01:02:06;;;;;;;1.90;1.80;;;16.40;99.90;;;;;;5040605;28;20484;-80
2023/09/20 01:04:33;;;;;;;2.43;2.23;;;16.40;99.90;;;;;;5056732;28;20492;-79
2023/09/20 01:07:00;;;;;;;3.07;2.57;;;16.40;99.90;;;;;;5055892;28;20441;-80
2023/09/20 01:09:27;;;;;;;2.90;2.03;;;16.40;99.90;;;;;;5056449;28;20436;-81
2023/09/20 01:11:57;;;;;;;2.30;2.10;;;16.40;99.90;;;;;;5056294;28;20442;-80
2023/09/20 01:14:25;;;;;;;2.73;2.20;;;16.30;99.90;;;;;;5056015;28;20457;-82
2023/09/20 01:16:54;;;;;;;2.40;2.20;;;16.30;99.90;;;;;;5056054;28;20473;-79
2023/09/20 01:19:20;;;;;;;2.23;2.13;;;16.30;99.90;;;;;;5056094;28;20449;-79
2023/09/20 01:21:49;;;;;;;2.13;2.03;;;16.30;99.90;;;;;;5055400;28;20445;-79
2023/09/20 01:24:17;;;;;;;2.60;2.40;;;16.30;99.90;;;;;;5056491;28;21005;-80
2023/09/20 01:26:46;;;;;;;2.40;2.20;;;16.30;99.90;;;;;;5056828;28;20445;-81
2023/09/20 01:29:12;;;;;;;1.97;1.87;;;16.30;99.90;;;;;;5056456;28;20528;-80
2023/09/20 01:31:40;;;;;;;3.17;1.93;;;16.60;99.90;;;;;;5056829;28;20468;-81
2023/09/20 01:34:07;;;;;;;2.27;2.10;;;16.30;99.90;;;;;;5056215;28;20448;-80
2023/09/20 01:36:34;;;;;;;2.23;2.00;;;16.30;99.90;;;;;;5057751;28;20552;-80
2023/09/20 01:39:08;;;;;;;3.27;1.97;;;16.30;99.90;;;;;;5057187;28;20473;-81
2023/09/20 01:41:34;;;;;;;2.37;2.17;;;16.20;99.90;;;;;;5056926;28;20483;-79
2023/09/20 01:44:02;;;;;;;4.03;1.80;;;16.20;99.90;;;;;;5056607;28;20438;-79
2023/09/20 01:46:29;;;;;;;3.30;2.07;;;16.20;99.90;;;;;;5058252;28;20878;-82
2023/09/20 01:48:58;;;;;;;3.87;2.30;;;16.20;99.90;;;;;;5062489;28;20460;-80
2023/09/20 01:51:25;;;;;;;2.40;2.20;;;16.20;99.90;;;;;;5060393;28;20461;-81
2023/09/20 01:53:52;;;;;;;2.60;2.33;;;16.20;99.90;;;;;;5058567;28;20445;-81
2023/09/20 01:56:21;;;;;;;3.40;2.20;;;16.10;99.90;;;;;;5059927;28;20506;-81
2023/09/20 01:58:49;;;;;;;2.20;1.80;;;16.10;99.90;;;;;;5058528;28;20449;-81
2023/09/20 02:01:17;;;;;;;3.83;2.80;;;16.10;99.90;;;;;;5058669;28;20472;-79
2023/09/20 02:03:43;;;;;;;2.00;1.80;;;16.20;99.90;;;;;;5058813;28;20458;-80
2023/09/20 02:06:11;;;;;;;1.80;1.70;;;16.10;99.90;;;;;;5057676;28;20461;-82
2023/09/20 02:08:37;;;;;;;1.97;1.87;;;16.10;99.90;;;;;;5057990;28;20449;-83
2023/09/20 02:11:04;;;;;;;2.50;2.30;;;16.10;99.90;;;;;;5060103;28;20437;-81
2023/09/20 02:13:32;;;;;;;2.50;2.30;;;16.10;99.90;;;;;;5062482;28;20448;-81
2023/09/20 02:16:00;;;;;;;2.20;2.10;;;16.10;99.90;;;;;;5058305;28;20854;-80
2023/09/20 02:18:26;;;;;;;4.40;2.10;;;16.10;99.90;;;;;;5056650;28;20480;-81
2023/09/20 02:20:55;;;;;;;2.13;2.03;;;16.00;99.90;;;;;;5057108;28;20793;-82
2023/09/20 02:23:22;;;;;;;2.40;2.20;;;16.00;99.90;;;;;;5056182;28;20441;-81
2023/09/20 02:25:48;;;;;;;2.40;2.20;;;16.00;99.90;;;;;;5056472;28;20465;-80
2023/09/20 02:28:16;;;;;;;2.10;2.00;;;16.00;99.90;;;;;;5057914;28;20444;-82
2023/09/20 02:30:45;;;;;;;1.83;1.73;;;16.00;99.90;;;;;;5054102;28;20500;-80
2023/09/20 02:33:17;;;;;;;1.97;1.87;;;16.00;99.90;;;;;;5058366;28;20451;-81
2023/09/20 02:35:45;;;;;;;2.33;1.93;;;15.90;99.90;;;;;;5061326;28;20489;-79
2023/09/20 02:38:11;;;;;;;2.70;1.80;;;15.90;99.90;;;;;;5057906;28;20441;-81
2023/09/20 02:40:38;;;;;;;2.70;2.13;;;15.90;99.90;;;;;;5057147;28;20865;-80
2023/09/20 02:43:08;;;;;;;2.23;2.13;;;16.10;99.90;;;;;;5057151;28;20452;-80
2023/09/20 02:45:39;;;;;;;2.13;2.03;;;15.90;99.90;;;;;;5057054;28;20492;-80
2023/09/20 02:48:07;;;;;;;3.00;2.60;;;15.80;99.90;;;;;;5058647;28;20430;-81
2023/09/20 02:50:34;;;;;;;3.03;2.60;;;15.80;99.90;;;;;;5057918;28;20460;-80
2023/09/20 02:53:01;;;;;;;2.10;2.00;;;15.80;99.90;;;;;;5056283;28;20453;-80
2023/09/20 02:55:31;;;;;;;2.10;1.90;;;15.80;99.90;;;;;;5056219;28;20481;-82
2023/09/20 02:57:57;;;;;;;2.47;2.27;;;15.80;99.90;;;;;;5057333;28;20451;-81
2023/09/20 03:00:27;;;;;;;2.60;2.40;;;15.70;99.90;;;;;;5057483;28;20449;-80
2023/09/20 03:02:56;;;;;;;2.33;2.20;;;15.80;99.90;;;;;;5057901;28;20914;-80
2023/09/20 03:05:27;;;;;;;4.30;2.30;;;15.70;99.90;;;;;;5057970;28;20880;-80
2023/09/20 03:07:54;;;;;;;2.50;2.20;;;15.80;99.90;;;;;;5058212;28;20422;-82
2023/09/20 03:10:22;;;;;;;2.00;1.90;;;16.00;99.90;;;;;;5058233;28;20442;-82
2023/09/20 03:12:51;;;;;;;2.83;2.23;;;15.80;99.90;;;;;;5058571;28;20923;-81
2023/09/20 03:15:21;;;;;;;3.33;2.20;;;15.80;99.90;;;;;;5057015;28;20486;-81
2023/09/20 03:17:49;;;;;;;2.40;2.30;;;15.90;99.90;;;;;;5057393;28;20481;-81
2023/09/20 03:20:22;;;;;;;3.07;2.13;;;15.80;99.90;;;;;;5057244;28;20819;-80
2023/09/20 03:22:51;;;;;;;2.60;2.23;;;15.80;99.90;;;;;;5058442;28;20438;-79
2023/09/20 03:25:19;;;;;;;5.03;2.40;;;15.80;99.90;;;;;;5058102;28;20814;-82
2023/09/20 03:27:48;;;;;;;2.23;2.07;;;15.80;99.90;;;;;;5058876;28;20545;-82
2023/09/20 03:30:16;;;;;;;2.17;2.07;;;15.90;99.90;;;;;;5058576;28;20565;-80
2023/09/20 03:32:44;;;;;;;2.83;2.23;;;15.70;99.90;;;;;;5060009;28;20484;-81
2023/09/20 03:35:14;;;;;;;6.63;2.77;;;15.80;99.90;;;;;;5058683;28;20476;-81
2023/09/20 03:37:41;;;;;;;3.87;2.43;;;15.70;99.90;;;;;;5058728;28;20469;-80
2023/09/20 03:40:15;;;;;;;2.47;2.27;;;15.70;99.90;;;;;;5058606;28;20434;-83
2023/09/20 03:42:42;;;;;;;2.30;2.20;;;15.60;99.90;;;;;;5058364;28;20777;-81
2023/09/20 03:45:11;;;;;;;3.20;2.13;;;15.60;99.90;;;;;;5058390;28;20788;-79
2023/09/20 03:47:38;;;;;;;2.70;2.27;;;15.60;99.90;;;;;;5059024;28;20434;-80
2023/09/20 03:50:06;;;;;;;2.03;1.83;;;15.60;99.90;;;;;;5058720;28;20449;-82
2023/09/20 03:52:33;;;;;;;2.80;2.43;;;15.60;99.90;;;;;;5058921;28;20422;-82
2023/09/20 03:55:00;;;;;;;2.60;2.40;;;15.70;99.90;;;;;;5058182;28;20461;-82
2023/09/20 03:57:28;;;;;;;2.60;2.40;;;15.80;99.90;;;;;;5059137;28;20440;-83
2023/09/20 03:59:57;;;;;;;2.10;1.90;;;15.60;99.90;;;;;;5058418;28;20452;-82
2023/09/20 04:02:24;;;;;;;2.73;2.53;;;15.60;99.90;;;;;;5058438;28;20488;-80
2023/09/20 04:04:51;;;;;;;2.60;2.30;;;15.60;99.90;;;;;;5058905;28;20468;-81
2023/09/20 04:07:19;;;;;;;4.30;3.70;;;15.60;99.90;;;;;;5058329;28;20903;-81
2023/09/20 04:09:45;;;;;;;7.57;6.97;;;15.60;99.90;;;;;;5058344;28;20437;-83
2023/09/20 04:12:12;;;;;;;3.07;2.80;;;15.80;99.90;;;;;;5058235;28;20441;-81
2023/09/20 04:14:41;;;;;;;4.70;3.23;;;15.60;99.90;;;;;;5058133;28;20938;-81
2023/09/20 04:17:08;;;;;;;2.77;2.57;;;15.50;99.90;;;;;;5057702;28;20509;-81
2023/09/20 04:19:39;;;;;;;2.53;2.33;;;15.40;99.90;;;;;;5060824;28;20441;-79
2023/09/20 04:22:06;;;;;;;3.23;3.00;;;15.40;99.90;;;;;;5063933;28;20445;-81
2023/09/20 04:24:33;;;;;;;2.50;2.30;;;15.40;99.90;;;;;;5063881;28;20466;-81
2023/09/20 04:27:01;;;;;;;3.23;2.40;;;15.40;99.90;;;;;;5064592;28;20442;-80
2023/09/20 04:29:27;;;;;;;2.77;2.30;;;15.50;99.90;;;;;;5060619;28;20527;-82
2023/09/20 04:31:56;;;;;;;2.63;2.43;;;15.50;99.90;;;;;;5056057;28;20449;-81
2023/09/20 04:34:23;;;;;;;2.47;2.37;;;15.50;99.90;;;;;;5058831;28;20511;-80
2023/09/20 04:36:51;;;;;;;2.40;2.30;;;15.50;99.90;;;;;;5058988;28;20500;-82
2023/09/20 04:39:18;;;;;;;2.63;2.43;;;15.50;99.90;;;;;;5060886;28;20460;-81
2023/09/20 04:41:44;;;;;;;3.83;3.53;;;15.50;99.90;;;;;;5060612;28;20442;-80
2023/09/20 04:44:13;;;;;;;7.10;6.37;;;15.50;99.90;;;;;;5071690;28;20457;-79
2023/09/20 04:46:40;;;;;;;5.10;3.40;;;15.50;99.90;;;;;;5074791;28;20502;-80
2023/09/20 04:49:10;;;;;;;2.50;2.40;;;15.40;99.90;;;;;;5065229;28;20446;-80
2023/09/20 04:51:38;;;;;;;3.00;2.80;;;15.70;99.90;;;;;;5065833;28;20453;-81
2023/09/20 04:54:06;;;;;;;2.40;2.20;;;15.40;99.90;;;;;;5057036;28;21100;-81
2023/09/20 04:56:33;;;;;;;2.70;2.60;;;15.40;99.90;;;;;;5057570;28;20588;-82
2023/09/20 04:59:00;;;;;;;3.57;3.27;;;15.40;99.90;;;;;;5057605;28;20437;-81
2023/09/20 05:01:29;;;;;;;2.53;2.27;;;15.40;99.90;;;;;;5056655;28;20446;-80
2023/09/20 05:03:55;;;;;;;4.07;2.70;;;15.30;99.90;;;;;;5057031;28;20442;-82
2023/09/20 05:06:24;;;;;;;3.00;2.80;;;15.30;99.90;;;;;;5056886;28;20477;-82
2023/09/20 05:08:50;;;;;;;3.07;2.63;;;15.30;99.90;;;;;;5056744;28;20464;-81
2023/09/20 05:11:18;;;;;;;3.07;2.50;;;15.30;99.90;;;;;;5056566;28;20446;-80
2023/09/20 05:13:45;;;;;;;3.30;2.73;;;15.30;99.90;;;;;;5056692;28;20461;-81
2023/09/20 05:16:12;;;;;;;5.23;3.30;;;15.60;99.90;;;;;;5056314;28;20488;-81
2023/09/20 05:18:39;;;;;;;2.43;2.23;;;15.30;99.90;;;;;;5057329;28;20453;-82
2023/09/20 05:21:05;;;;;;;2.90;2.70;;;15.30;99.90;;;;;;5056256;28;20939;-81
2023/09/20 05:23:35;;;;;;;2.67;2.47;;;15.30;99.90;;;;;;5055514;28;20503;-82
2023/09/20 05:26:02;;;;;;;4.07;3.77;;;15.30;99.90;;;;;;5056723;28;20470;-82
2023/09/20 05:28:29;;;;;;;2.23;2.13;;;15.30;99.90;;;;;;5053923;28;20477;-78
2023/09/20 05:30:57;;;;;;;3.57;2.77;;;15.40;99.90;;;;;;5055123;28;20442;-80
2023/09/20 05:33:24;;;;;;;2.70;2.50;;;15.40;99.90;;;;;;5060718;28;20421;-81
2023/09/20 05:35:52;;;;;;;3.30;2.83;;;15.40;99.90;;;;;;5063777;28;20457;-81
2023/09/20 05:38:21;;;;;;;5.40;3.17;;;15.40;99.90;;;;;;5057093;28;20444;-81
2023/09/20 05:40:49;;;;;;;2.33;2.13;;;15.40;99.90;;;;;;5057803;28;20469;-81
2023/09/20 05:43:16;;;;;;;3.23;2.50;;;15.40;99.90;;;;;;5060625;28;20449;-81
2023/09/20 05:45:43;;;;;;;4.73;2.57;;;15.50;99.90;;;;;;5062431;28;20468;-80
2023/09/20 05:48:10;;;;;;;4.10;2.77;;;15.50;99.90;;;;;;5059646;28;20445;-81
2023/09/20 05:50:37;;;;;;;6.30;3.70;;;;;;;;;;5058849;28;20453;-79
2023/09/20 05:53:06;;;;;;;5.90;3.90;;;15.60;99.90;;;;;;5059995;28;20433;-81
2023/09/20 05:55:34;;;;;;;5.93;3.43;;;15.80;99.90;;;;;;5059074;28;20519;-81
2023/09/20 05:58:02;;;;;;;4.97;3.80;;;15.40;99.90;;;;;;5056809;28;20489;-83
2023/09/20 06:00:29;;;;;;;5.70;4.10;;;15.40;99.90;;;;;;5056886;28;20481;-82
2023/09/20 06:02:58;;;;;;;4.30;3.90;;;15.40;99.90;;;;;;5056114;28;20438;-80
2023/09/20 06:05:25;;;;;;;5.33;3.47;;;15.40;99.90;;;;;;5057403;28;20457;-81
2023/09/20 06:07:53;;;;;;;4.30;3.90;;;15.40;99.90;;;;;;5060903;28;20464;-80
2023/09/20 06:10:22;;;;;;;3.43;3.13;;;15.80;99.90;;;;;;5061719;28;20445;-80
2023/09/20 06:12:50;;;;;;;5.23;2.90;;;15.60;99.90;;;;;;5054810;28;20496;-80
2023/09/20 06:15:34;;;;;;;2.60;2.40;;;15.70;99.90;;;;;;5064958;28;20544;-79
2023/09/20 06:18:07;;;;;;;3.97;3.53;;;15.80;99.90;;;;;;5069745;28;20469;-80
2023/09/20 06:20:45;;;;;;;5.60;3.00;;;16.00;99.90;;;;;;5067316;28;20430;-79
2023/09/20 06:23:18;;;;;;;4.17;3.20;;;16.10;99.90;;;;;;5068592;28;20453;-79
2023/09/20 06:25:48;;;;;;;2.60;2.40;;;16.20;99.90;;;;;;5068448;28;20462;-79
2023/09/20 06:28:29;;;;;;;4.63;2.87;;;16.30;99.90;;;;;;5068366;28;20449;-80
2023/09/20 06:31:12;;;;;;;2.80;2.50;;;16.40;99.90;;;;;;5068585;28;20449;-77
2023/09/20 06:33:46;;;;;;;4.40;3.07;;;16.50;99.90;;;;;;5069848;28;20453;-82
2023/09/20 06:39:06;;;;;;;3.30;3.10;;;16.60;99.90;;;;;;5065268;28;20452;-81
2023/09/20 06:41:37;;;;;;;4.70;3.00;;;16.60;99.90;;;;;;5066514;28;20453;-80
2023/09/20 06:44:08;;;;;;;6.63;2.80;;;16.30;99.90;;;;;;5068855;28;20545;-80
2023/09/20 06:46:42;;;;;;;3.60;3.30;;;16.70;99.90;;;;;;5069493;28;20446;-81
2023/09/20 06:49:15;;;;;;;7.77;4.13;;;16.80;99.90;;;;;;5066526;28;20465;-80
2023/09/20 06:51:52;;;;;;;7.57;4.03;;;16.80;99.90;;;;;;5064714;28;20461;-80
2023/09/20 06:54:32;;;;;;;7.07;4.13;;;17.00;99.90;;;;;;5065461;28;20560;-80
2023/09/20 06:57:08;;;;;;;6.63;3.77;;;16.70;99.90;;;;;;5064198;28;20473;-81
2023/09/20 06:59:43;;;;;;;5.87;4.13;;;16.70;99.90;;;;;;5070254;28;20452;-79
2023/09/20 07:02:18;;;;;;;4.67;3.83;;;16.80;99.90;;;;;;5074642;28;20437;-81
2023/09/20 07:04:58;;;;;;;4.63;4.20;;;16.80;99.90;;;;;;5073777;28;20471;-80
2023/09/20 07:07:32;;;;;;;6.13;4.40;;;16.80;99.90;;;;;;5069551;28;20452;-80
2023/09/20 07:10:05;;;;;;;4.80;4.27;;;16.80;99.90;;;;;;5067965;28;20457;-81
2023/09/20 07:12:38;;;;;;;8.47;6.63;;;17.00;99.90;;;;;;5066427;28;20505;-81
2023/09/20 07:15:36;;;;;;;11.37;6.67;;;16.90;99.90;;;;;;5070029;28;20469;-80
2023/09/20 07:18:35;;;;;;;8.37;4.67;;;17.10;99.90;;;;;;5072442;28;20541;-81
2023/09/20 07:21:27;;;;;;;9.07;4.87;;;17.20;99.90;;;;;;4986562;28;20974;-81
2023/09/20 07:27:16;;;;;;;4.40;4.00;;;17.40;99.90;;;;;;4982378;28;20533;-80
2023/09/20 07:30:17;;;;;;;8.50;4.30;;;17.60;99.90;;;;;;4988103;28;20437;-80
2023/09/20 07:33:08;;;;;;;5.40;3.90;;;17.80;99.90;;;;;;4981425;28;20457;-81
2023/09/20 07:35:58;;;;;;;7.43;3.90;;;17.90;99.90;;;;;;5064098;28;20450;-80
2023/09/20 07:38:36;;;;;;;4.47;3.80;;;18.00;99.90;;;;;;5064401;28;20473;-80
2023/09/20 07:41:22;;;;;;;9.77;5.17;;;18.10;99.90;;;;;;5065816;28;20450;-82
2023/09/20 07:44:15;;;;;;;7.27;3.47;;;18.40;99.90;;;;;;5065697;28;20528;-80
2023/09/20 07:46:52;;;;;;;7.67;3.73;;;18.20;99.90;;;;;;5065618;28;20476;-79
2023/09/20 07:52:12;;;;;;;6.60;3.47;;;18.70;99.90;;;;;;5059812;28;20938;-82
2023/09/20 07:54:51;;;;;;;3.90;3.47;;;18.50;99.90;;;;;;5060855;28;20469;-80
2023/09/20 07:57:39;;;;;;;;;;;;;;;;;;;;;
2023/09/20 08:00:15;;;;;;;5.23;3.53;;;18.80;99.90;;;;;;5060405;28;20887;-79
2023/09/20 08:02:54;;;;;;;4.40;3.50;;;18.80;99.90;;;;;;5059982;28;20522;-81
2023/09/20 08:05:47;;;;;;;5.67;3.50;;;18.80;99.90;;;;;;5069694;22;20486;-81
2023/09/20 08:08:22;;;;;;;4.47;3.70;;;18.80;99.90;;;;;;5043155;28;20435;-81
2023/09/20 08:10:56;;;;;;;7.67;3.70;;;18.90;99.90;;;;;;5039556;28;20500;-81
2023/09/20 08:13:47;;;;;;;5.87;3.30;;;19.00;99.90;;;;;;5038513;28;20442;-82
2023/09/20 08:16:32;;;;;;;4.77;3.07;;;19.10;99.90;;;;;;5043350;28;20470;-81
2023/09/20 08:19:08;;;;;;;3.33;3.00;;;19.40;99.90;;;;;;5045546;28;20505;-80
2023/09/20 08:21:54;;;;;;;5.43;2.90;;;19.60;99.90;;;;;;5045999;28;20419;-81
2023/09/20 09:04:44;;;;;;;;;;;;;;;;;;;;;
2023/09/20 09:07:22;;;;;;;4.77;2.30;;;23.10;99.90;;;;;;5063630;28;20434;-79
2023/09/20 09:10:43;;;;;;;;;;;;;;;;;;;;;
2023/09/20 09:20:23;;;;;;;2.43;2.23;;;24.30;99.90;;;;;;5002955;28;20510;-79
2023/09/20 09:23:44;;;;;;;3.30;2.50;;;24.40;99.90;;;;;;5065227;28;20453;-78
2023/09/20 09:27:31;;;;;;;;;;;;;;;;;;;;;
2023/09/20 09:31:08;;;;;;;1.77;1.67;;;25.30;99.90;;;;;;4921474;29;20448;-80
2023/09/20 09:55:01;;;;;;;1.97;1.80;;;26.70;99.90;;;;;;4949589;28;20475;-80
2023/09/20 09:58:04;;;;;;;2.20;2.00;;;26.40;99.90;;;;;;4911325;29;20547;-81
2023/09/20 10:11:41;;;;;;;3.00;2.40;;;27.10;99.90;;;;;;4937490;29;20452;-81
2023/09/20 10:15:00;;;;;;;2.40;2.20;;;26.80;99.90;;;;;;4922123;28;20459;-80
2023/09/20 10:17:56;;;;;;;2.40;2.20;;;27.20;99.90;;;;;;4980616;28;20485;-79
2023/09/20 10:21:14;;;;;;;2.40;2.13;;;27.10;99.20;;;;;;4987193;28;20445;-81
2023/09/20 10:33:13;;;;;;;2.23;2.13;;;26.40;96.40;;;;;;4968499;28;20448;-80
2023/09/20 10:35:54;;;;;;;2.57;2.37;;;26.90;95.70;;;;;;4997483;28;20468;-81
2023/09/20 10:38:46;;;;;;;2.60;2.37;;;27.30;96.50;;;;;;4991960;28;20490;-80
2023/09/20 10:45:33;;;;;;;2.70;2.50;;;27.10;94.20;;;;;;4963334;28;20470;-80
2023/09/20 10:48:48;;;;;;;3.57;3.27;;;27.20;94.30;;;;;;4961346;28;20445;-80
2023/09/20 10:52:03;;;;;;;;;;;;;;;;;;;;;
2023/09/20 10:59:01;;;;;;;2.60;2.20;;;28.90;90.70;;;;;;4988333;28;20539;-82
2023/09/20 11:02:19;;;;;;;2.77;2.30;;;29.40;90.00;;;;;;5000250;28;20889;-81
2023/09/20 11:14:16;;;;;;;2.83;2.63;;;29.20;76.20;;;;;;4954053;28;20431;-79
2023/09/20 11:16:53;;;;;;;3.00;2.80;;;29.30;77.70;;;;;;4988080;28;20463;-78
2023/09/20 11:20:00;;;;;;;;;;;;;;;;;;;;;
2023/09/20 11:28:13;;;;;;;2.90;2.67;;;29.30;75.10;;;;;;4983550;28;20461;-79
2023/09/20 11:30:58;;;;;;;3.07;2.77;;;29.90;75.10;;;;;;4988139;28;20446;-79
2023/09/20 11:33:39;;;;;;;2.77;2.53;;;30.40;76.50;;;;;;4992445;28;20481;-80
2023/09/20 11:36:22;;;;;;;2.60;2.40;;;29.60;77.50;;;;;;4991839;28;20480;-79
2023/09/20 11:39:03;;;;;;;3.23;3.03;;;29.10;79.20;;;;;;4990310;28;20508;-79
2023/09/20 11:41:38;;;;;;;2.60;2.40;;;28.90;81.80;;;;;;4988935;28;20556;-80
2023/09/20 11:44:34;;;;;;;3.50;3.20;;;29.70;80.20;;;;;;4987516;28;20452;-78
2023/09/20 11:47:10;;;;;;;2.87;2.67;;;30.50;80.70;;;;;;4987767;28;20485;-78
2023/09/20 11:49:53;;;;;;;2.80;2.60;;;29.60;80.30;;;;;;4988976;28;20469;-79
2023/09/20 11:52:32;;;;;;;2.50;2.30;;;;;;;;;;4987643;28;20544;-79
2023/09/20 11:55:16;;;;;;;2.83;2.63;;;29.20;83.00;;;;;;4987709;28;20535;-79
2023/09/20 11:58:06;;;;;;;3.33;2.50;;;30.60;81.60;;;;;;4988530;28;20487;-79
2023/09/20 12:03:56;;;;;;;1.80;1.70;;;31.40;79.90;;;;;;4946169;28;20468;-79
2023/09/20 12:06:45;;;;;;;2.20;2.00;;;31.10;74.80;;;;;;4984779;28;20440;-79
2023/09/20 12:09:33;;;;;;;1.90;1.70;;;30.90;76.70;;;;;;4986882;28;20525;-79
2023/09/20 12:12:18;;;;;;;1.97;1.83;;;30.50;77.30;;;;;;4987358;28;20460;-79
2023/09/20 12:14:55;;;;;;;3.00;2.00;;;30.60;78.50;;;;;;4986735;28;20549;-80
2023/09/20 12:17:27;;;;;;;1.70;1.60;;;30.80;78.50;;;;;;4987712;28;20464;-79
2023/09/20 12:22:53;;;;;;;2.20;1.30;;;30.50;79.10;;;;;;4988419;28;20437;-79
2023/09/20 12:25:31;;;;;;;1.73;1.63;;;29.90;80.90;;;;;;4989394;28;20468;-79
2023/09/20 12:28:09;;;;;;;1.70;1.60;;;31.00;79.50;;;;;;4988431;28;21050;-79
2023/09/20 12:30:47;;;;;;;1.43;1.33;;;31.50;79.00;;;;;;4987992;28;20516;-79
2023/09/20 12:33:21;;;;;;;2.93;1.47;;;31.80;77.90;;;;;;4988363;28;20460;-80
2023/09/20 12:35:51;;;;;;;2.30;1.83;;;31.70;78.90;;;;;;4984495;28;20469;-80
2023/09/20 12:38:35;;;;;;;1.20;1.20;;;31.50;78.10;;;;;;4987816;28;20484;-79
2023/09/20 12:41:11;;;;;;;1.57;1.47;;;31.60;78.20;;;;;;4987879;28;20525;-79
2023/09/20 12:43:40;;;;;;;1.50;1.33;;;31.70;76.90;;;;;;4986412;28;20434;-79
2023/09/20 12:46:08;;;;;;;3.80;1.80;;;31.80;77.80;;;;;;4982095;28;20469;-81
2023/09/20 12:48:39;;;;;;;1.53;1.43;;;31.70;77.00;;;;;;4984300;28;20465;-80
2023/09/20 12:51:13;;;;;;;3.13;1.80;;;31.40;78.30;;;;;;4988237;28;20445;-79
2023/09/20 12:53:48;;;;;;;4.03;3.73;;;32.00;77.30;;;;;;4989730;28;20481;-80
2023/09/20 12:56:21;;;;;;;1.60;1.50;;;32.60;76.00;;;;;;4988719;28;20553;-78
2023/09/20 12:59:13;;;;;;;1.80;1.50;;;32.70;72.20;;;;;;4988677;28;20491;-80
2023/09/20 13:04:46;;;;;;;1.27;1.20;;;32.30;73.70;;;;;;4969257;29;20466;-77
2023/09/20 13:07:48;;;;;;;1.40;1.17;;;32.80;71.60;;;;;;4968190;29;20544;-79
2023/09/20 13:10:19;;;;;;;2.13;1.40;;;32.80;70.30;;;;;;4971178;28;20881;-76
2023/09/20 13:13:03;;;;;;;1.80;1.70;;;31.50;71.30;;;;;;4969198;28;20461;-82
2023/09/20 13:15:49;;;;;;;2.17;1.67;;;32.10;70.60;;;;;;4968999;28;20474;-81
2023/09/20 13:18:17;;;;;;;2.30;1.37;;;32.70;69.80;;;;;;4953396;28;20478;-80
2023/09/20 13:20:45;;;;;;;1.30;1.20;;;32.90;66.30;;;;;;4963786;29;20478;-81
2023/09/20 13:23:18;;;;;;;1.63;1.53;;;32.50;66.10;;;;;;4963281;28;20438;-80
2023/09/20 13:26:08;;;;;;;1.40;1.30;;;32.20;66.70;;;;;;4962016;28;20830;-81
2023/09/20 13:28:41;;;;;;;1.10;1.10;;;32.10;65.80;;;;;;4963860;28;20442;-80
2023/09/20 13:31:13;;;;;;;1.10;1.10;;;32.00;65.80;;;;;;4964723;28;20442;-81
2023/09/20 13:33:53;;;;;;;3.50;3.30;;;32.10;66.60;;;;;;4965746;28;20438;-81
2023/09/20 13:36:34;;;;;;;1.27;1.10;;;32.60;67.00;;;;;;4969884;29;20457;-82
2023/09/20 13:39:42;;;;;;;;;;;;;;;;;;;;;
2023/09/20 13:42:18;;;;;;;1.40;1.30;;;31.50;67.30;;;;;;4969594;29;20482;-79
2023/09/20 13:45:06;;;;;;;;;;;;;;;;;;;;;
2023/09/20 13:48:06;;;;;;;;;;;;;;;;;;;;;
2023/09/20 13:50:39;;;;;;;1.23;1.10;;;31.60;67.10;;;;;;4972385;28;20442;-80
2023/09/20 13:53:21;;;;;;;2.00;1.47;;;32.70;65.30;;;;;;4972861;28;20450;-79
2023/09/20 13:56:19;;;;;;;1.43;1.33;;;32.70;64.10;;;;;;4972264;29;20566;-81
2023/09/20 13:59:00;;;;;;;1.40;1.30;;;32.60;63.90;;;;;;4964741;28;20469;-80
2023/09/20 14:01:52;;;;;;;1.40;1.30;;;32.90;63.80;;;;;;4970506;29;20838;-79
2023/09/20 14:04:48;;;;;;;1.80;1.27;;;32.40;63.50;;;;;;4969566;28;20545;-78
2023/09/20 14:07:45;;;;;;;1.20;1.10;;;32.40;64.30;;;;;;4970385;28;20454;-78
2023/09/20 14:13:43;;;;;;;2.00;1.67;;;33.50;61.90;;;;;;4965147;28;20446;-80
2023/09/20 14:16:20;;;;;;;1.20;1.10;;;33.60;62.50;;;;;;4965909;28;20478;-81
2023/09/20 14:19:35;;;;;;;1.03;1.03;;;33.80;61.20;;;;;;4960726;29;20597;-80
2023/09/20 14:22:31;;;;;;;1.70;1.60;;;33.90;60.90;;;;;;4961015;28;20458;-80
2023/09/20 14:25:21;;;;;;;1.30;1.20;;;33.80;61.20;;;;;;4959879;28;20570;-81
2023/09/20 14:28:10;;;;;;;1.73;1.17;;;33.60;62.00;;;;;;4960744;28;20464;-82
2023/09/20 14:31:07;;;;;;;3.93;1.43;;;33.40;61.50;;;;;;4963685;28;20450;-81
2023/09/20 14:34:13;;;;;;;1.93;1.23;;;33.50;62.00;;;;;;4964288;28;20506;-81
2023/09/20 14:37:21;;;;;;;1.47;1.37;;;33.30;62.10;;;;;;4944713;29;20962;-81
2023/09/20 14:40:32;;;;;;;1.20;1.10;;;33.50;61.70;;;;;;4905131;29;20480;-80
2023/09/20 14:43:21;;;;;;;1.43;1.33;;;33.20;61.90;;;;;;4964810;29;20454;-80
2023/09/20 14:45:58;;;;;;;1.50;1.40;;;32.60;62.30;;;;;;4964064;28;20508;-81
2023/09/20 14:48:56;;;;;;;1.33;1.23;;;31.80;64.00;;;;;;4963816;28;20449;-79
2023/09/20 14:51:43;;;;;;;5.30;1.53;;;31.80;64.50;;;;;;4963542;28;20895;-81
2023/09/20 14:54:23;;;;;;;1.47;1.30;;;32.00;64.30;;;;;;4968483;28;20464;-79
2023/09/20 14:56:57;;;;;;;1.53;1.23;;;32.30;64.20;;;;;;4962497;29;20453;-79
2023/09/20 14:59:33;;;;;;;1.30;1.20;;;32.50;64.10;;;;;;4960511;28;20481;-79
2023/09/20 15:05:23;;;;;;;1.57;1.47;;;32.20;64.70;;;;;;4959316;28;20967;-82
2023/09/20 15:08:55;;;;;;;1.20;1.20;;;31.70;65.60;;;;;;4955759;28;20455;-79
2023/09/20 15:11:58;;;;;;;1.33;1.30;;;31.50;66.30;;;;;;4940965;28;20481;-79
2023/09/20 15:14:58;;;;;;;;;;;;;;;;;;;;;
2023/09/20 15:21:01;;;;;;;;;;;;;;;;;;;;;
2023/09/20 15:23:38;;;;;;;1.33;1.20;;;31.20;67.50;;;;;;4962662;28;20442;-78
2023/09/20 15:29:17;;;;;;;3.70;1.57;;;31.40;67.10;;;;;;4960086;28;20423;-77
2023/09/20 15:31:53;;;;;;;2.03;1.23;;;31.40;67.20;;;;;;4960703;28;20485;-79
2023/09/20 15:40:36;;;;;;;1.40;1.20;;;31.90;66.30;;;;;;4961928;28;21013;-80
2023/09/20 15:43:32;;;;;;;;;;;;;;;;;;;;;
2023/09/20 15:46:14;;;;;;;1.43;1.40;;;31.60;66.70;;;;;;4964811;28;20462;-80
2023/09/20 15:49:01;;;;;;;1.30;1.20;;;31.10;68.00;;;;;;4966170;28;20489;-81
2023/09/20 15:51:46;;;;;;;1.80;1.50;;;31.00;67.90;;;;;;4967207;28;20466;-78
2023/09/20 16:00:53;;;;;;;;;;;;;;;;;;;;;
2023/09/20 16:03:41;;;;;;;1.13;1.13;;;30.50;69.00;;;;;;4975426;28;20517;-78
2023/09/20 16:06:18;;;;;;;2.57;1.33;;;30.30;69.70;;;;;;4981013;28;20484;-79
2023/09/20 16:09:05;;;;;;;1.47;1.37;;;30.50;69.50;;;;;;4980718;28;21001;-78
2023/09/20 16:11:49;;;;;;;1.30;1.20;;;30.80;68.80;;;;;;4978315;28;20460;-78
2023/09/20 16:14:28;;;;;;;2.07;1.90;;;30.80;68.90;;;;;;4977549;28;20508;-79
2023/09/20 16:17:39;;;;;;;1.63;1.53;;;30.80;69.20;;;;;;4978211;28;20457;-78
2023/09/20 16:23:40;;;;;;;1.57;1.47;;;30.00;70.60;;;;;;4978637;28;20548;-79
2023/09/20 16:42:01;;;;;;;2.70;1.80;;;28.70;73.00;;;;;;4976401;28;20438;-78
2023/09/20 16:44:48;;;;;;;1.87;1.40;;;28.50;73.70;;;;;;4977294;28;20465;-77
2023/09/20 16:47:38;;;;;;;1.83;1.50;;;28.50;73.90;;;;;;4977708;28;20475;-78